• Join FlightAware (Why Join?)
  • Login
  • US Flag 
03:23PM EST


 

Airport Tracker/Info


-or-


 

Live Flight TrackerFlight Track Log ✈ SKW6345 ✈ 25-May-2014 ✈ KLAX - KFAT

Flight Track Log - Related Links

Times and Time Zones

All times are in EDT time to prevent confusion due to time zone crossing. See the SKW6345 flight status page for this flight to view local times or setup timezone preferences in your user account.

Time Position Orientation Groundspeed Altitude Reporting Facility
EDT Latitude Longitude Course Direction KTS MPH feet Rate Location/Type
07:37PM 33.9500 -118.4667 335° Northwest 171 197 2,000  Level Southern California TRACON
07:38PM 33.9500 -118.5333 270° West 187 215 3,600 1,500 Climbing Southern California TRACON
07:39PM 33.9861 -118.5922 306° West 196 226 5,400 1,500 Climbing Los Angeles Center
07:40PM 34.0331 -118.6272 328° Northwest 195 224 7,000 780 Climbing Los Angeles Center
07:41PM 34.0950 -118.6397 351° North 227 261 7,100 240 Climbing Los Angeles Center
07:42PM 34.1653 -118.6572 348° North 243 280 7,600 1,200 Climbing Los Angeles Center
07:43PM 34.3380 -118.6118 335° Northwest  Level FlightAware Approximate
07:43PM 34.2267 -118.6708 350° North 230 265 9,600  Level Los Angeles Center
07:45PM 34.2792 -118.6819 350° North 198 228 11,400 1,260 Climbing Los Angeles Center
07:46PM 34.3325 -118.6925 351° North 194 223 12,200 1,140 Climbing Los Angeles Center
07:47PM 34.3914 -118.7044 350° North 210 242 13,800 1,020 Climbing Los Angeles Center
07:48PM 34.4531 -118.7208 348° North 201 231 14,400 840 Climbing Los Angeles Center
07:49PM 34.5147 -118.7389 346° North 210 242 15,600 1,020 Climbing Los Angeles Center
07:50PM 34.5706 -118.7544 347° North 207 238 16,600 960 Climbing Los Angeles Center
07:51PM 34.6256 -118.7672 349° North 203 234 17,600 780 Climbing Los Angeles Center
07:52PM 34.6811 -118.7797 350° North 203 234 18,300 600 Climbing Los Angeles Center
07:53PM 34.7403 -118.7906 351° North 212 244 18,900 660 Climbing Los Angeles Center
07:54PM 34.8011 -118.8008 352° North 218 251 19,700 780 Climbing Los Angeles Center
07:55PM 34.8714 -118.8158 350° North 213 245 20,600 660 Climbing Los Angeles Center
07:56PM 34.9239 -118.8242 353° North 213 245 21,100 540 Climbing Los Angeles Center
07:57PM 34.9839 -118.8369 350° North 215 247 21,800 480 Climbing Los Angeles Center
07:58PM 35.0572 -118.8514 351° North 222 255 22,100 120 Climbing Los Angeles Center
07:59PM 35.1250 -118.8644 351° North 242 278 22,100  Level Los Angeles Center
08:00PM 35.1928 -118.8786 350° North 243 280 22,100  Level Los Angeles Center
08:01PM 35.2581 -118.8917 351° North 242 278 22,100  Level Los Angeles Center
08:02PM 35.3236 -118.9044 351° North 242 278 22,100  Level Los Angeles Center
08:03PM 35.3928 -118.9175 351° North 244 281 22,100  Level Los Angeles Center
08:04PM 35.4717 -118.9328 351° North 243 280 22,100  Level Los Angeles Center
08:05PM 35.5375 -118.9469 350° North 241 277 22,100  Level Los Angeles Center
08:06PM 35.6039 -118.9597 351° North 241 277 22,100  Level Los Angeles Center
08:07PM 35.6703 -118.9733 351° North 242 278 22,100 -720 Level Los Angeles Center
08:08PM 35.7394 -118.9881 350° North 247 284 20,700 -1,800 Descending Los Angeles Center
08:09PM 35.8194 -119.0039 351° North 283 326 18,400 -2,580 Descending Los Angeles Center
08:10PM 35.9192 -119.0250 350° North 296 341 15,400 -2,160 Descending Los Angeles Center
08:11PM 35.9944 -119.0619 338° Northwest 295 339 14,000 -720 Descending Los Angeles Center
08:12PM 36.0631 -119.0936 340° North 269 310 14,000  Level Los Angeles Center
08:13PM 36.1256 -119.1256 338° Northwest 248 285 14,000 -360 Level Los Angeles Center
08:14PM 36.1881 -119.1544 340° North 241 277 13,300 -1,080 Descending Los Angeles Center
08:15PM 36.2556 -119.1867 339° North 249 287 11,900 -1,260 Descending Los Angeles Center
08:16PM 36.3308 -119.2225 339° North 267 307 10,800 -1,080 Descending Los Angeles Center
08:17PM 36.4200 -119.2639 340° North 279 321 9,700 -900 Descending Los Angeles Center
08:19PM 36.4911 -119.2972 339° North 279 321 9,000 -840 Descending Los Angeles Center
08:20PM 36.5542 -119.3406 331° Northwest 281 323 8,100 -1,500 Descending Los Angeles Center
08:21PM 36.5933 -119.4219 301° West 281 323 6,000 -1,740 Descending Los Angeles Center
08:22PM 36.6639 -119.5178 313° West 268 308 4,000 -1,500 Descending Oakland Center
08:23PM 36.7044 -119.5903 305° West 259 298 2,400 -1,320 Descending Oakland Center
08:24PM 36.7417 -119.6556 305° West 217 250 1,400 -840 Descending Oakland Center
08:25PM 36.7628 -119.6931 305° West 146 168 700 -540 Descending Oakland Center
08:26PM 36.7847 -119.7300 307° West 137 158 400 -300 Descending Oakland Center